Tiona, New York
Current Conditions -  °F | °C
As of 3:53 PM on Friday 28 Nov 2014 (Local Time) from KBGM Reporting Station
Clear Clear  
Wind Chill: 19°   Ceiling: Unl
Heat Index: 29°   Visibility: 10mi
Dew Point:   Wind: 12mph
Humidity: 43%   Direction: 310°NW
Pressure: 30.12"   Gusts: 18mph
Location:  42.2341°N, 76.1713°W
Report Text: KBGM 282053Z 31010G16KT 10SM CLR M02/M13 A3012 RMK AO2 SLP221 T10171128 53000
Loading
Personal Weather Stations






























Interactive Weather Map New forecast layout! Learn more

10-Day Weather Forecast

Advertisements
Track Severe Weather on mobile